RYR3RK EDDB-EGCC
Flight info
| Callsign | RYR3RK |
|---|---|
| Flight time | 1h 31m |
| Altitude | 38000 |
| Route | SUKIP3N SUKIP Y206 BUREL P203 HLZ L980 SAS DCT RKN L602 SPY DCT RAVLO Y70 OTBED |
| Aircraft | B738/M-SDE3FGILRWY/SB1 |
Departure
| Time | 2026-05-07 19:40 |
|---|---|
| Airport | Berlin Brandenburg Airport (EDDB) |
Arrival
| Time | 2026-05-07 21:12 |
|---|---|
| Airport | Manchester Airport (EGCC) |
| Time | Latitude | Longitude | Altitude | Speed | Heading |
|---|---|---|---|---|---|
| 2026-05-07 19:08 | 52.36772 | 13.50682 | 154 ft | 0 kts | 159° |
| 2026-05-07 19:31 | 52.36778 | 13.50678 | 154 ft | 3 kts | 159° |
| 2026-05-07 19:32 | 52.36794 | 13.50668 | 154 ft | 3 kts | 159° |
| 2026-05-07 19:32 | 52.36813 | 13.50656 | 154 ft | 3 kts | 159° |
| 2026-05-07 19:32 | 52.36830 | 13.50645 | 154 ft | 3 kts | 163° |
| 2026-05-07 19:32 | 52.36845 | 13.50642 | 154 ft | 3 kts | 221° |
| 2026-05-07 19:33 | 52.36855 | 13.50666 | 154 ft | 3 kts | 249° |
| 2026-05-07 19:33 | 52.36862 | 13.50697 | 154 ft | 3 kts | 252° |
| 2026-05-07 19:33 | 52.36866 | 13.50719 | 154 ft | 0 kts | 249° |
| 2026-05-07 19:35 | 52.36862 | 13.50702 | 154 ft | 4 kts | 249° |
| 2026-05-07 19:35 | 52.36845 | 13.50631 | 154 ft | 9 kts | 248° |
| 2026-05-07 19:35 | 52.36821 | 13.50532 | 154 ft | 9 kts | 250° |
| 2026-05-07 19:36 | 52.36795 | 13.50423 | 154 ft | 13 kts | 247° |
| 2026-05-07 19:36 | 52.36753 | 13.50242 | 154 ft | 19 kts | 249° |
| 2026-05-07 19:36 | 52.36722 | 13.50111 | 154 ft | 6 kts | 261° |
| 2026-05-07 19:36 | 52.36734 | 13.50069 | 154 ft | 0 kts | 312° |
| 2026-05-07 19:37 | 52.36734 | 13.50068 | 154 ft | 0 kts | 313° |
| 2026-05-07 19:37 | 52.36754 | 13.50046 | 154 ft | 8 kts | 327° |
| 2026-05-07 19:37 | 52.36775 | 13.49931 | 154 ft | 16 kts | 252° |
| 2026-05-07 19:37 | 52.36726 | 13.49725 | 154 ft | 23 kts | 249° |
| 2026-05-07 19:38 | 52.36661 | 13.49448 | 153 ft | 29 kts | 248° |
| 2026-05-07 19:38 | 52.36587 | 13.49140 | 153 ft | 28 kts | 248° |
| 2026-05-07 19:38 | 52.36520 | 13.48853 | 153 ft | 23 kts | 250° |
| 2026-05-07 19:38 | 52.36463 | 13.48612 | 153 ft | 22 kts | 249° |
| 2026-05-07 19:39 | 52.36464 | 13.48404 | 153 ft | 19 kts | 329° |
| 2026-05-07 19:39 | 52.36586 | 13.48324 | 153 ft | 19 kts | 341° |
| 2026-05-07 19:39 | 52.36695 | 13.48262 | 153 ft | 13 kts | 357° |
| 2026-05-07 19:39 | 52.36739 | 13.48366 | 153 ft | 16 kts | 68° |
| 2026-05-07 19:40 | 52.36880 | 13.48967 | 154 ft | 101 kts | 69° |
| 2026-05-07 19:40 | 52.37232 | 13.50439 | 190 ft | 170 kts | 68° |
| 2026-05-07 19:40 | 52.37631 | 13.52274 | 1106 ft | 174 kts | 70° |
| 2026-05-07 19:40 | 52.38068 | 13.54142 | 2127 ft | 178 kts | 68° |
| 2026-05-07 19:41 | 52.38524 | 13.56031 | 3154 ft | 179 kts | 68° |
| 2026-05-07 19:41 | 52.38980 | 13.57928 | 4163 ft | 178 kts | 67° |
| 2026-05-07 19:41 | 52.39408 | 13.59714 | 5157 ft | 167 kts | 67° |
| 2026-05-07 19:41 | 52.39877 | 13.61628 | 5523 ft | 196 kts | 63° |
| 2026-05-07 19:42 | 52.40835 | 13.63326 | 5732 ft | 218 kts | 24° |
| 2026-05-07 19:42 | 52.42323 | 13.64144 | 6125 ft | 231 kts | 18° |
| 2026-05-07 19:42 | 52.43867 | 13.64986 | 6686 ft | 237 kts | 15° |
| 2026-05-07 19:42 | 52.45510 | 13.65071 | 7312 ft | 241 kts | 346° |
| 2026-05-07 19:43 | 52.47059 | 13.63757 | 7596 ft | 268 kts | 316° |
| 2026-05-07 19:43 | 52.48058 | 13.61137 | 8260 ft | 278 kts | 287° |
| 2026-05-07 19:43 | 52.48343 | 13.57981 | 9112 ft | 282 kts | 272° |
| 2026-05-07 19:43 | 52.48314 | 13.54740 | 9924 ft | 286 kts | 268° |
| 2026-05-07 19:44 | 52.48205 | 13.51435 | 10582 ft | 298 kts | 267° |
| 2026-05-07 19:44 | 52.48075 | 13.47899 | 10785 ft | 324 kts | 267° |
| 2026-05-07 19:44 | 52.47942 | 13.44119 | 11254 ft | 337 kts | 267° |
| 2026-05-07 19:44 | 52.47815 | 13.40248 | 12003 ft | 342 kts | 267° |
| 2026-05-07 19:45 | 52.47696 | 13.36335 | 12812 ft | 344 kts | 267° |
| 2026-05-07 19:45 | 52.47585 | 13.32396 | 13586 ft | 347 kts | 267° |
| 2026-05-07 19:45 | 52.47477 | 13.28414 | 14312 ft | 351 kts | 267° |
| 2026-05-07 19:45 | 52.47370 | 13.24386 | 15021 ft | 355 kts | 267° |
| 2026-05-07 19:46 | 52.47264 | 13.20318 | 15737 ft | 358 kts | 267° |
| 2026-05-07 19:46 | 52.47157 | 13.16217 | 16421 ft | 362 kts | 267° |
| 2026-05-07 19:46 | 52.47049 | 13.12070 | 17074 ft | 366 kts | 267° |
| 2026-05-07 19:46 | 52.46939 | 13.07882 | 17737 ft | 369 kts | 267° |
| 2026-05-07 19:47 | 52.46826 | 13.03648 | 18377 ft | 372 kts | 267° |
| 2026-05-07 19:47 | 52.46712 | 12.99384 | 18994 ft | 376 kts | 267° |
| 2026-05-07 19:47 | 52.46596 | 12.95135 | 19586 ft | 380 kts | 267° |
| 2026-05-07 19:47 | 52.46477 | 12.90792 | 20172 ft | 383 kts | 267° |
| 2026-05-07 19:48 | 52.46354 | 12.86409 | 20736 ft | 387 kts | 267° |
| 2026-05-07 19:48 | 52.46229 | 12.81985 | 21285 ft | 390 kts | 268° |
| 2026-05-07 19:48 | 52.46100 | 12.77518 | 21822 ft | 393 kts | 268° |
| 2026-05-07 19:48 | 52.45970 | 12.73017 | 22346 ft | 397 kts | 267° |
| 2026-05-07 19:49 | 52.45836 | 12.68483 | 22846 ft | 400 kts | 268° |
| 2026-05-07 19:49 | 52.45700 | 12.63907 | 23345 ft | 403 kts | 268° |
| 2026-05-07 19:49 | 52.45561 | 12.59302 | 23830 ft | 406 kts | 268° |
| 2026-05-07 19:49 | 52.45418 | 12.54661 | 24288 ft | 409 kts | 268° |
| 2026-05-07 19:50 | 52.45274 | 12.49990 | 24743 ft | 412 kts | 268° |
| 2026-05-07 19:50 | 52.45126 | 12.45277 | 25187 ft | 415 kts | 268° |
| 2026-05-07 19:50 | 52.44975 | 12.40536 | 25611 ft | 418 kts | 268° |
| 2026-05-07 19:50 | 52.44820 | 12.35763 | 26029 ft | 420 kts | 267° |
| 2026-05-07 19:51 | 52.44664 | 12.30964 | 26439 ft | 423 kts | 268° |
| 2026-05-07 19:51 | 52.44504 | 12.26138 | 26838 ft | 426 kts | 267° |
| 2026-05-07 19:51 | 52.44342 | 12.21278 | 27223 ft | 428 kts | 267° |
| 2026-05-07 19:51 | 52.44176 | 12.16396 | 27577 ft | 431 kts | 267° |
| 2026-05-07 19:52 | 52.44007 | 12.11471 | 27929 ft | 433 kts | 267° |
| 2026-05-07 19:52 | 52.43835 | 12.06530 | 28280 ft | 436 kts | 267° |
| 2026-05-07 19:52 | 52.43660 | 12.01564 | 28617 ft | 438 kts | 267° |
| 2026-05-07 19:52 | 52.43482 | 11.96564 | 28945 ft | 440 kts | 267° |
| 2026-05-07 19:53 | 52.43302 | 11.91548 | 29278 ft | 442 kts | 267° |
| 2026-05-07 19:53 | 52.43119 | 11.86518 | 29603 ft | 444 kts | 267° |
| 2026-05-07 19:53 | 52.42933 | 11.81461 | 29892 ft | 446 kts | 267° |
| 2026-05-07 19:53 | 52.42744 | 11.76378 | 30173 ft | 448 kts | 267° |
| 2026-05-07 19:54 | 52.42551 | 11.71273 | 30460 ft | 450 kts | 267° |
| 2026-05-07 19:54 | 52.42356 | 11.66148 | 30749 ft | 451 kts | 267° |
| 2026-05-07 19:54 | 52.42158 | 11.61017 | 31107 ft | 450 kts | 267° |
| 2026-05-07 19:54 | 52.41959 | 11.55909 | 31516 ft | 448 kts | 266° |
| 2026-05-07 19:55 | 52.41759 | 11.50827 | 31900 ft | 447 kts | 266° |
| 2026-05-07 19:55 | 52.41557 | 11.45780 | 32240 ft | 446 kts | 266° |
| 2026-05-07 19:55 | 52.41421 | 11.42398 | 32444 ft | 446 kts | 266° |
| 2026-05-07 19:55 | 52.41145 | 11.35618 | 32854 ft | 446 kts | 266° |
| 2026-05-07 19:56 | 52.41007 | 11.32260 | 33061 ft | 446 kts | 266° |
| 2026-05-07 19:56 | 52.40797 | 11.27203 | 33391 ft | 445 kts | 266° |
| 2026-05-07 19:56 | 52.40586 | 11.22155 | 33712 ft | 444 kts | 266° |
| 2026-05-07 19:56 | 52.40373 | 11.17116 | 33989 ft | 444 kts | 266° |
| 2026-05-07 19:57 | 52.40157 | 11.12068 | 34258 ft | 444 kts | 266° |
| 2026-05-07 19:57 | 52.39939 | 11.07029 | 34552 ft | 443 kts | 266° |
| 2026-05-07 19:57 | 52.39720 | 11.02001 | 34842 ft | 443 kts | 265° |
| 2026-05-07 19:57 | 52.39499 | 10.96979 | 35081 ft | 443 kts | 265° |
| 2026-05-07 19:58 | 52.39275 | 10.91945 | 35314 ft | 443 kts | 265° |
| 2026-05-07 19:58 | 52.39050 | 10.86917 | 35580 ft | 443 kts | 265° |
| 2026-05-07 19:58 | 52.38822 | 10.81886 | 35835 ft | 442 kts | 265° |
| 2026-05-07 19:58 | 52.38593 | 10.76865 | 36058 ft | 442 kts | 265° |
| 2026-05-07 19:59 | 52.38361 | 10.71852 | 36280 ft | 443 kts | 265° |
| 2026-05-07 19:59 | 52.38127 | 10.66828 | 36494 ft | 443 kts | 265° |
| 2026-05-07 19:59 | 52.37890 | 10.61803 | 36705 ft | 443 kts | 265° |
| 2026-05-07 19:59 | 52.37652 | 10.56781 | 36951 ft | 442 kts | 265° |
| 2026-05-07 20:00 | 52.37413 | 10.51786 | 37204 ft | 440 kts | 265° |
| 2026-05-07 20:00 | 52.37171 | 10.46795 | 37419 ft | 440 kts | 265° |
| 2026-05-07 20:00 | 52.36929 | 10.41808 | 37620 ft | 440 kts | 265° |
| 2026-05-07 20:00 | 52.36684 | 10.36826 | 37838 ft | 439 kts | 265° |
| 2026-05-07 20:01 | 52.36438 | 10.31857 | 38058 ft | 438 kts | 265° |
| 2026-05-07 20:01 | 52.36189 | 10.26887 | 38086 ft | 441 kts | 265° |
| 2026-05-07 20:01 | 52.35692 | 10.17049 | 38096 ft | 438 kts | 265° |
| 2026-05-07 20:02 | 52.35187 | 10.07231 | 38100 ft | 434 kts | 265° |
| 2026-05-07 20:02 | 52.34670 | 9.97371 | 38099 ft | 431 kts | 264° |
| 2026-05-07 20:03 | 52.34155 | 9.87702 | 38105 ft | 429 kts | 264° |
| 2026-05-07 20:03 | 52.33630 | 9.77992 | 38118 ft | 428 kts | 264° |
| 2026-05-07 20:04 | 52.33099 | 9.68282 | 38127 ft | 430 kts | 264° |
| 2026-05-07 20:04 | 52.32555 | 9.58525 | 38127 ft | 432 kts | 264° |
| 2026-05-07 20:05 | 52.32000 | 9.48712 | 38128 ft | 435 kts | 264° |
| 2026-05-07 20:05 | 52.31434 | 9.38829 | 38119 ft | 438 kts | 264° |
| 2026-05-07 20:06 | 52.30856 | 9.28893 | 38110 ft | 440 kts | 264° |
| 2026-05-07 20:06 | 52.30267 | 9.18919 | 38102 ft | 441 kts | 264° |
| 2026-05-07 20:07 | 52.29668 | 9.08938 | 38100 ft | 441 kts | 264° |
| 2026-05-07 20:07 | 52.29065 | 8.99026 | 38099 ft | 441 kts | 264° |
| 2026-05-07 20:08 | 52.28452 | 8.89062 | 38100 ft | 440 kts | 264° |
| 2026-05-07 20:08 | 52.27832 | 8.79152 | 38099 ft | 438 kts | 264° |
| 2026-05-07 20:09 | 52.27206 | 8.69262 | 38100 ft | 437 kts | 264° |
| 2026-05-07 20:10 | 52.26256 | 8.54495 | 38104 ft | 435 kts | 263° |
| 2026-05-07 20:10 | 52.25614 | 8.44689 | 38110 ft | 434 kts | 263° |
| 2026-05-07 20:11 | 52.24965 | 8.34914 | 38109 ft | 432 kts | 263° |
| 2026-05-07 20:11 | 52.24311 | 8.25176 | 38112 ft | 432 kts | 263° |
| 2026-05-07 20:12 | 52.23649 | 8.15446 | 38115 ft | 431 kts | 263° |
| 2026-05-07 20:12 | 52.22980 | 8.05722 | 38122 ft | 431 kts | 263° |
| 2026-05-07 20:13 | 52.22302 | 7.95998 | 38118 ft | 432 kts | 263° |
| 2026-05-07 20:13 | 52.21620 | 7.86326 | 38126 ft | 432 kts | 263° |
| 2026-05-07 20:14 | 52.20924 | 7.76582 | 38132 ft | 433 kts | 263° |
| 2026-05-07 20:14 | 52.20219 | 7.66817 | 38130 ft | 434 kts | 263° |
| 2026-05-07 20:15 | 52.19506 | 7.57036 | 38131 ft | 435 kts | 263° |
| 2026-05-07 20:15 | 52.18781 | 7.47233 | 38132 ft | 436 kts | 263° |
| 2026-05-07 20:16 | 52.18048 | 7.37426 | 38128 ft | 436 kts | 262° |
| 2026-05-07 20:16 | 52.17305 | 7.27607 | 38130 ft | 437 kts | 262° |
| 2026-05-07 20:17 | 52.16555 | 7.17785 | 38120 ft | 437 kts | 262° |
| 2026-05-07 20:17 | 52.15795 | 7.07968 | 38120 ft | 437 kts | 262° |
| 2026-05-07 20:18 | 52.15029 | 6.98156 | 38119 ft | 437 kts | 262° |
| 2026-05-07 20:18 | 52.14257 | 6.88359 | 38120 ft | 436 kts | 262° |
| 2026-05-07 20:19 | 52.13714 | 6.78543 | 38104 ft | 436 kts | 272° |
| 2026-05-07 20:19 | 52.14838 | 6.68889 | 38107 ft | 436 kts | 289° |
| 2026-05-07 20:20 | 52.16939 | 6.59629 | 38105 ft | 436 kts | 290° |
| 2026-05-07 20:20 | 52.19005 | 6.50404 | 38096 ft | 436 kts | 289° |
| 2026-05-07 20:21 | 52.21041 | 6.41104 | 38092 ft | 436 kts | 289° |
| 2026-05-07 20:21 | 52.23074 | 6.31795 | 38086 ft | 435 kts | 289° |
| 2026-05-07 20:22 | 52.25103 | 6.22493 | 38080 ft | 435 kts | 289° |
| 2026-05-07 20:22 | 52.27127 | 6.13183 | 38081 ft | 435 kts | 289° |
| 2026-05-07 20:23 | 52.29144 | 6.03867 | 38090 ft | 435 kts | 288° |
| 2026-05-07 20:23 | 52.31152 | 5.94553 | 38083 ft | 435 kts | 288° |
| 2026-05-07 20:24 | 52.33146 | 5.85263 | 38088 ft | 435 kts | 288° |
| 2026-05-07 20:24 | 52.35140 | 5.75926 | 38096 ft | 435 kts | 288° |
| 2026-05-07 20:25 | 52.37128 | 5.66576 | 38096 ft | 435 kts | 288° |
| 2026-05-07 20:25 | 52.39109 | 5.57212 | 38104 ft | 435 kts | 288° |
| 2026-05-07 20:26 | 52.41081 | 5.47852 | 38100 ft | 435 kts | 288° |
| 2026-05-07 20:26 | 52.43045 | 5.38474 | 38101 ft | 435 kts | 288° |
| 2026-05-07 20:27 | 52.45004 | 5.29090 | 38100 ft | 435 kts | 288° |
| 2026-05-07 20:27 | 52.46957 | 5.19689 | 38104 ft | 436 kts | 288° |
| 2026-05-07 20:28 | 52.48903 | 5.10271 | 38100 ft | 436 kts | 288° |
| 2026-05-07 20:28 | 52.50845 | 5.00835 | 38104 ft | 436 kts | 288° |
| 2026-05-07 20:29 | 52.52781 | 4.91389 | 38103 ft | 437 kts | 288° |
| 2026-05-07 20:29 | 52.54731 | 4.81938 | 38099 ft | 437 kts | 289° |
| 2026-05-07 20:30 | 52.56866 | 4.72600 | 38103 ft | 437 kts | 290° |
| 2026-05-07 20:30 | 52.59040 | 4.63277 | 38098 ft | 436 kts | 290° |
| 2026-05-07 20:31 | 52.61184 | 4.53941 | 38103 ft | 436 kts | 290° |
| 2026-05-07 20:31 | 52.63307 | 4.44583 | 38101 ft | 436 kts | 289° |
| 2026-05-07 20:32 | 52.65304 | 4.35711 | 38100 ft | 436 kts | 289° |
| 2026-05-07 20:32 | 52.67391 | 4.26399 | 38101 ft | 435 kts | 289° |
| 2026-05-07 20:33 | 52.69480 | 4.17040 | 38109 ft | 435 kts | 289° |
| 2026-05-07 20:33 | 52.71560 | 4.07681 | 38110 ft | 435 kts | 289° |
| 2026-05-07 20:34 | 52.73634 | 3.98308 | 38110 ft | 434 kts | 289° |
| 2026-05-07 20:34 | 52.75699 | 3.88936 | 38114 ft | 434 kts | 289° |
| 2026-05-07 20:35 | 52.77759 | 3.79541 | 38117 ft | 434 kts | 289° |
| 2026-05-07 20:35 | 52.79806 | 3.70162 | 38121 ft | 434 kts | 289° |
| 2026-05-07 20:36 | 52.81839 | 3.60807 | 38121 ft | 435 kts | 289° |
| 2026-05-07 20:36 | 52.83875 | 3.51390 | 38126 ft | 435 kts | 289° |
| 2026-05-07 20:37 | 52.85907 | 3.41958 | 38129 ft | 435 kts | 289° |
| 2026-05-07 20:37 | 52.87930 | 3.32515 | 38132 ft | 436 kts | 289° |
| 2026-05-07 20:38 | 52.89952 | 3.23039 | 38129 ft | 436 kts | 288° |
| 2026-05-07 20:38 | 52.91930 | 3.13529 | 38124 ft | 436 kts | 284° |
| 2026-05-07 20:39 | 52.93288 | 3.03812 | 38129 ft | 436 kts | 281° |
| 2026-05-07 20:39 | 52.94500 | 2.93961 | 38129 ft | 436 kts | 281° |
| 2026-05-07 20:40 | 52.95742 | 2.84123 | 38123 ft | 436 kts | 281° |
| 2026-05-07 20:40 | 52.97012 | 2.74270 | 38120 ft | 436 kts | 281° |
| 2026-05-07 20:41 | 52.98281 | 2.64430 | 38121 ft | 436 kts | 281° |
| 2026-05-07 20:41 | 52.99543 | 2.54583 | 38120 ft | 436 kts | 281° |
| 2026-05-07 20:42 | 53.00796 | 2.44730 | 38121 ft | 436 kts | 281° |
| 2026-05-07 20:42 | 53.02039 | 2.34875 | 38120 ft | 436 kts | 281° |
| 2026-05-07 20:43 | 53.03066 | 2.26680 | 38114 ft | 436 kts | 281° |
| 2026-05-07 20:43 | 53.04296 | 2.16819 | 38110 ft | 436 kts | 281° |
| 2026-05-07 20:44 | 53.05713 | 2.05348 | 38111 ft | 436 kts | 281° |
| 2026-05-07 20:44 | 53.06730 | 1.97079 | 38110 ft | 436 kts | 281° |
| 2026-05-07 20:45 | 53.08167 | 1.87366 | 38107 ft | 436 kts | 286° |
| 2026-05-07 20:45 | 53.10053 | 1.77773 | 38103 ft | 436 kts | 288° |
| 2026-05-07 20:46 | 53.11966 | 1.68181 | 38102 ft | 436 kts | 287° |
| 2026-05-07 20:46 | 53.13826 | 1.58564 | 38101 ft | 436 kts | 287° |
| 2026-05-07 20:47 | 53.15653 | 1.48914 | 38101 ft | 436 kts | 287° |
| 2026-05-07 20:47 | 53.17464 | 1.39274 | 38103 ft | 436 kts | 286° |
| 2026-05-07 20:48 | 53.19264 | 1.29626 | 38101 ft | 436 kts | 286° |
| 2026-05-07 20:48 | 53.21056 | 1.19976 | 38100 ft | 436 kts | 286° |
| 2026-05-07 20:49 | 53.22842 | 1.10315 | 38091 ft | 436 kts | 286° |
| 2026-05-07 20:49 | 53.24622 | 1.00631 | 38061 ft | 437 kts | 286° |
| 2026-05-07 20:49 | 53.25506 | 0.95807 | 37597 ft | 442 kts | 286° |
| 2026-05-07 20:50 | 53.26402 | 0.90906 | 37095 ft | 440 kts | 286° |
| 2026-05-07 20:50 | 53.27293 | 0.86018 | 36568 ft | 439 kts | 286° |
| 2026-05-07 20:50 | 53.28181 | 0.81143 | 36008 ft | 439 kts | 286° |
| 2026-05-07 20:50 | 53.29068 | 0.76249 | 35392 ft | 440 kts | 286° |
| 2026-05-07 20:51 | 53.29951 | 0.71355 | 34772 ft | 440 kts | 286° |
| 2026-05-07 20:51 | 53.30835 | 0.66448 | 34136 ft | 442 kts | 286° |
| 2026-05-07 20:51 | 53.31720 | 0.61522 | 33486 ft | 443 kts | 286° |
| 2026-05-07 20:51 | 53.32606 | 0.56579 | 32819 ft | 444 kts | 286° |
| 2026-05-07 20:52 | 53.33492 | 0.51627 | 32136 ft | 445 kts | 286° |
| 2026-05-07 20:52 | 53.34379 | 0.46651 | 31430 ft | 447 kts | 286° |
| 2026-05-07 20:52 | 53.35265 | 0.41665 | 30702 ft | 448 kts | 285° |
| 2026-05-07 20:52 | 53.36150 | 0.36672 | 30144 ft | 445 kts | 285° |
| 2026-05-07 20:53 | 53.37026 | 0.31723 | 29611 ft | 441 kts | 285° |
| 2026-05-07 20:53 | 53.37891 | 0.26816 | 29079 ft | 437 kts | 285° |
| 2026-05-07 20:53 | 53.38748 | 0.21952 | 28542 ft | 433 kts | 285° |
| 2026-05-07 20:53 | 53.39582 | 0.17198 | 28024 ft | 429 kts | 285° |
| 2026-05-07 20:54 | 53.40417 | 0.12421 | 27503 ft | 425 kts | 285° |
| 2026-05-07 20:54 | 53.41244 | 0.07683 | 26985 ft | 422 kts | 285° |
| 2026-05-07 20:54 | 53.42062 | 0.02982 | 26469 ft | 418 kts | 285° |
| 2026-05-07 20:54 | 53.42872 | -0.01680 | 25954 ft | 415 kts | 285° |
| 2026-05-07 20:55 | 53.43674 | -0.06310 | 25446 ft | 411 kts | 285° |
| 2026-05-07 20:55 | 53.44465 | -0.10893 | 24944 ft | 407 kts | 285° |
| 2026-05-07 20:55 | 53.45248 | -0.15432 | 24444 ft | 403 kts | 285° |
| 2026-05-07 20:55 | 53.46021 | -0.19935 | 23942 ft | 400 kts | 285° |
| 2026-05-07 20:56 | 53.46786 | -0.24399 | 23462 ft | 396 kts | 285° |
| 2026-05-07 20:56 | 53.47542 | -0.28826 | 22969 ft | 392 kts | 285° |
| 2026-05-07 20:56 | 53.48290 | -0.33212 | 22479 ft | 389 kts | 285° |
| 2026-05-07 20:56 | 53.49030 | -0.37565 | 21994 ft | 386 kts | 285° |
| 2026-05-07 20:57 | 53.49763 | -0.41888 | 21514 ft | 383 kts | 285° |
| 2026-05-07 20:57 | 53.50478 | -0.46114 | 21042 ft | 380 kts | 285° |
| 2026-05-07 20:57 | 53.51195 | -0.50360 | 20574 ft | 376 kts | 284° |
| 2026-05-07 20:57 | 53.51903 | -0.54570 | 20097 ft | 373 kts | 284° |
| 2026-05-07 20:58 | 53.52607 | -0.58756 | 19631 ft | 370 kts | 284° |
| 2026-05-07 20:58 | 53.53303 | -0.62905 | 19166 ft | 368 kts | 284° |
| 2026-05-07 20:58 | 53.53993 | -0.67032 | 18695 ft | 365 kts | 284° |
| 2026-05-07 20:58 | 53.54676 | -0.71127 | 18243 ft | 362 kts | 284° |
| 2026-05-07 20:59 | 53.55352 | -0.75195 | 17792 ft | 360 kts | 284° |
| 2026-05-07 20:59 | 53.56022 | -0.79231 | 17333 ft | 357 kts | 284° |
| 2026-05-07 20:59 | 53.56687 | -0.83249 | 16881 ft | 355 kts | 284° |
| 2026-05-07 20:59 | 53.57347 | -0.87242 | 16426 ft | 352 kts | 284° |
| 2026-05-07 21:00 | 53.57913 | -0.91232 | 15965 ft | 349 kts | 276° |
| 2026-05-07 21:00 | 53.58101 | -0.95228 | 15554 ft | 345 kts | 271° |
| 2026-05-07 21:00 | 53.58199 | -0.99254 | 15127 ft | 343 kts | 271° |
| 2026-05-07 21:00 | 53.58280 | -1.03248 | 14701 ft | 340 kts | 270° |
| 2026-05-07 21:01 | 53.58355 | -1.07211 | 14280 ft | 338 kts | 270° |
| 2026-05-07 21:01 | 53.58426 | -1.11153 | 13851 ft | 336 kts | 270° |
| 2026-05-07 21:01 | 53.58496 | -1.15064 | 13427 ft | 333 kts | 270° |
| 2026-05-07 21:01 | 53.58565 | -1.18950 | 13002 ft | 331 kts | 270° |
| 2026-05-07 21:02 | 53.58634 | -1.22814 | 12579 ft | 330 kts | 270° |
| 2026-05-07 21:02 | 53.58705 | -1.26663 | 12166 ft | 328 kts | 270° |
| 2026-05-07 21:02 | 53.58776 | -1.30492 | 11728 ft | 326 kts | 270° |
| 2026-05-07 21:02 | 53.58845 | -1.34295 | 11306 ft | 324 kts | 270° |
| 2026-05-07 21:03 | 53.58911 | -1.38079 | 10882 ft | 323 kts | 270° |
| 2026-05-07 21:03 | 53.58973 | -1.41841 | 10458 ft | 321 kts | 270° |
| 2026-05-07 21:03 | 53.59031 | -1.45590 | 10033 ft | 319 kts | 270° |
| 2026-05-07 21:03 | 53.59083 | -1.49324 | 9598 ft | 318 kts | 270° |
| 2026-05-07 21:04 | 53.59129 | -1.53030 | 9186 ft | 316 kts | 270° |
| 2026-05-07 21:04 | 53.59170 | -1.56726 | 8759 ft | 315 kts | 270° |
| 2026-05-07 21:04 | 53.59207 | -1.60401 | 8334 ft | 313 kts | 270° |
| 2026-05-07 21:04 | 53.59241 | -1.64062 | 7911 ft | 312 kts | 270° |
| 2026-05-07 21:05 | 53.59275 | -1.67701 | 7485 ft | 310 kts | 270° |
| 2026-05-07 21:05 | 53.59315 | -1.71264 | 7379 ft | 298 kts | 270° |
| 2026-05-07 21:05 | 53.59358 | -1.74683 | 7286 ft | 286 kts | 269° |
| 2026-05-07 21:05 | 53.59014 | -1.77862 | 7181 ft | 273 kts | 243° |
| 2026-05-07 21:06 | 53.58037 | -1.80518 | 6987 ft | 266 kts | 234° |
| 2026-05-07 21:06 | 53.56934 | -1.83017 | 6671 ft | 265 kts | 231° |
| 2026-05-07 21:06 | 53.55776 | -1.85444 | 6319 ft | 266 kts | 230° |
| 2026-05-07 21:06 | 53.54602 | -1.87852 | 5962 ft | 267 kts | 230° |
| 2026-05-07 21:07 | 53.53422 | -1.90267 | 5617 ft | 268 kts | 230° |
| 2026-05-07 21:07 | 53.52242 | -1.92690 | 5231 ft | 269 kts | 230° |
| 2026-05-07 21:07 | 53.51055 | -1.95130 | 4862 ft | 270 kts | 230° |
| 2026-05-07 21:07 | 53.49869 | -1.97570 | 4495 ft | 270 kts | 230° |
| 2026-05-07 21:08 | 53.48683 | -2.00014 | 4134 ft | 270 kts | 230° |
| 2026-05-07 21:08 | 53.47496 | -2.02461 | 3779 ft | 270 kts | 230° |
| 2026-05-07 21:08 | 53.46309 | -2.04905 | 3412 ft | 270 kts | 230° |
| 2026-05-07 21:08 | 53.45125 | -2.07345 | 3047 ft | 267 kts | 230° |
| 2026-05-07 21:09 | 53.43971 | -2.09728 | 2696 ft | 259 kts | 229° |
| 2026-05-07 21:09 | 53.42854 | -2.12034 | 2349 ft | 249 kts | 230° |
| 2026-05-07 21:09 | 53.41808 | -2.14193 | 2054 ft | 228 kts | 230° |
| 2026-05-07 21:09 | 53.40851 | -2.16168 | 1755 ft | 208 kts | 230° |
| 2026-05-07 21:10 | 53.39976 | -2.17978 | 1483 ft | 192 kts | 231° |
| 2026-05-07 21:10 | 53.39181 | -2.19621 | 1262 ft | 175 kts | 231° |
| 2026-05-07 21:10 | 53.38453 | -2.21130 | 1067 ft | 157 kts | 232° |
| 2026-05-07 21:10 | 53.37789 | -2.22522 | 856 ft | 150 kts | 230° |
| 2026-05-07 21:11 | 53.37123 | -2.23861 | 620 ft | 151 kts | 230° |
| 2026-05-07 21:11 | 53.36469 | -2.25222 | 408 ft | 150 kts | 231° |
| 2026-05-07 21:11 | 53.35317 | -2.27617 | 241 ft | 92 kts | 231° |
| 2026-05-07 21:12 | 53.35055 | -2.28167 | 232 ft | 32 kts | 238° |
| 2026-05-07 21:12 | 53.34962 | -2.28476 | 230 ft | 29 kts | 253° |
| 2026-05-07 21:12 | 53.34961 | -2.28721 | 227 ft | 14 kts | 321° |
| 2026-05-07 21:12 | 53.35045 | -2.28682 | 228 ft | 14 kts | 46° |
| 2026-05-07 21:13 | 53.35110 | -2.28554 | 227 ft | 16 kts | 51° |
| 2026-05-07 21:13 | 53.35184 | -2.28402 | 228 ft | 17 kts | 50° |
| 2026-05-07 21:13 | 53.35259 | -2.28250 | 232 ft | 18 kts | 49° |
| 2026-05-07 21:13 | 53.35349 | -2.28093 | 235 ft | 18 kts | 44° |
| 2026-05-07 21:14 | 53.35440 | -2.27948 | 237 ft | 18 kts | 43° |
| 2026-05-07 21:14 | 53.35537 | -2.27791 | 237 ft | 24 kts | 44° |
| 2026-05-07 21:14 | 53.35655 | -2.27605 | 245 ft | 23 kts | 42° |
| 2026-05-07 21:14 | 53.35748 | -2.27406 | 254 ft | 19 kts | 51° |
| 2026-05-07 21:15 | 53.35819 | -2.27226 | 254 ft | 18 kts | 83° |
| 2026-05-07 21:15 | 53.35817 | -2.27027 | 254 ft | 16 kts | 63° |
| 2026-05-07 21:15 | 53.35861 | -2.26918 | 255 ft | 10 kts | 53° |
| 2026-05-07 21:15 | 53.35912 | -2.26856 | 255 ft | 10 kts | 337° |
| 2026-05-07 21:16 | 53.35923 | -2.26940 | 254 ft | 6 kts | 272° |
| 2026-05-07 21:16 | 53.35924 | -2.26977 | 254 ft | 0 kts | 275° |
| 2026-05-07 21:16 | 53.35924 | -2.26985 | 254 ft | 0 kts | 275° |